createdAt,value
2018-12-20T00:00:21.592Z,99587.69
2018-12-20T00:03:25.107Z,99585.14
2018-12-20T00:06:28.470Z,99588.24
2018-12-20T00:09:32.071Z,99585.35
2018-12-20T00:12:35.495Z,99583.91
2018-12-20T00:15:38.826Z,99580.53
2018-12-20T00:18:42.244Z,99589.23
2018-12-20T00:21:45.618Z,99587.11
2018-12-20T00:24:49.383Z,99583.28
2018-12-20T00:27:52.949Z,99583.59
2018-12-20T00:30:56.308Z,99578.95
2018-12-20T00:33:59.647Z,99580.73
2018-12-20T00:37:03.007Z,99579.49
2018-12-20T00:40:07.048Z,99577.25
2018-12-20T00:43:10.465Z,99578.62
2018-12-20T00:46:13.865Z,99569.76
2018-12-20T00:49:17.204Z,99577.67
2018-12-20T00:52:20.598Z,99577.66
2018-12-20T00:55:23.979Z,99570.81
2018-12-20T00:58:27.385Z,99576.19
2018-12-20T01:01:30.789Z,99577.84
2018-12-20T01:04:34.314Z,99578.12
2018-12-20T01:07:37.642Z,99575.21
2018-12-20T01:10:41.153Z,99583.50
2018-12-20T01:13:44.411Z,99583.59
2018-12-20T01:16:47.761Z,99583.30
2018-12-20T01:19:51.113Z,99583.23
2018-12-20T01:22:54.480Z,99578.33
2018-12-20T01:25:57.779Z,99585.65
2018-12-20T01:29:01.157Z,99584.95
2018-12-20T01:32:04.597Z,99584.80
2018-12-20T01:35:08.028Z,99585.30
2018-12-20T01:38:11.429Z,99583.98
2018-12-20T01:41:15.002Z,99587.78
2018-12-20T01:44:18.340Z,99587.86
2018-12-20T01:47:21.687Z,99585.89
2018-12-20T01:50:25.217Z,99584.27
2018-12-20T01:53:28.696Z,99581.61
2018-12-20T01:56:32.115Z,99578.44
2018-12-20T01:59:35.496Z,99576.80
2018-12-20T02:02:39.111Z,99571.76
2018-12-20T02:05:42.698Z,99580.31
2018-12-20T02:08:46.082Z,99576.66
2018-12-20T02:11:49.544Z,99584.55
2018-12-20T02:14:52.874Z,99589.58
2018-12-20T02:17:56.145Z,99588.59
2018-12-20T02:20:59.442Z,99588.08
2018-12-20T02:24:02.991Z,99582.39
2018-12-20T02:27:06.416Z,99588.98
2018-12-20T02:30:11.194Z,99584.17
2018-12-20T02:33:14.557Z,99581.07
2018-12-20T02:36:17.892Z,99576.78
2018-12-20T02:39:21.169Z,99584.24
2018-12-20T02:42:24.486Z,99583.28
2018-12-20T02:45:27.780Z,99589.44
2018-12-20T02:48:31.121Z,99581.20
2018-12-20T02:51:34.394Z,99572.91
2018-12-20T02:54:37.830Z,99571.41
2018-12-20T02:57:41.225Z,99566.22
2018-12-20T03:00:44.588Z,99566.72
2018-12-20T03:03:48.000Z,99570.34
2018-12-20T03:06:51.545Z,99560.20
2018-12-20T03:09:54.953Z,99558.47
2018-12-20T03:12:58.419Z,99553.11
2018-12-20T03:16:01.696Z,99554.48
2018-12-20T03:19:05.118Z,99550.48
2018-12-20T03:22:08.425Z,99547.84
2018-12-20T03:25:11.680Z,99546.04
2018-12-20T03:28:15.041Z,99543.50
2018-12-20T03:31:18.452Z,99542.46
2018-12-20T03:34:21.688Z,99541.42
2018-12-20T03:37:24.935Z,99536.92
2018-12-20T03:40:28.273Z,99538.74
2018-12-20T03:43:31.844Z,99525.07
2018-12-20T03:46:35.582Z,99534.21
2018-12-20T03:49:38.904Z,99533.69
2018-12-20T03:52:42.162Z,99533.69
2018-12-20T03:55:45.880Z,99529.70
2018-12-20T03:58:49.356Z,99530.16
2018-12-20T04:01:52.770Z,99533.25
2018-12-20T04:04:56.137Z,99525.79
2018-12-20T04:07:59.607Z,99526.23
2018-12-20T04:11:03.084Z,99529.25
2018-12-20T04:14:06.497Z,99527.55
2018-12-20T04:17:09.894Z,99528.48
2018-12-20T04:20:13.193Z,99525.40
2018-12-20T04:23:16.724Z,99526.20
2018-12-20T04:26:20.387Z,99526.62
2018-12-20T04:29:23.681Z,99522.28
2018-12-20T04:32:27.006Z,99525.44
2018-12-20T04:35:30.326Z,99518.86
2018-12-20T04:38:33.725Z,99520.58
2018-12-20T04:41:37.094Z,99519.28
2018-12-20T04:44:40.423Z,99522.27
2018-12-20T04:47:43.723Z,99519.59
2018-12-20T04:50:47.333Z,99522.77
2018-12-20T04:53:50.662Z,99528.75
2018-12-20T04:56:54.238Z,99534.52
2018-12-20T04:59:57.706Z,99531.44
2018-12-20T05:03:01.199Z,99533.11
2018-12-20T05:06:04.565Z,99521.72
2018-12-20T05:09:08.020Z,99523.86
2018-12-20T05:12:11.572Z,99515.48
2018-12-20T05:15:15.008Z,99532.31
2018-12-20T05:18:18.303Z,99523.46
2018-12-20T05:21:21.834Z,99518.20
2018-12-20T05:24:25.196Z,99524.44
2018-12-20T05:27:29.958Z,99524.03
2018-12-20T05:30:33.261Z,99523.16
2018-12-20T05:33:36.546Z,99538.89
2018-12-20T05:36:39.988Z,99531.46
2018-12-20T05:39:43.366Z,99544.95
2018-12-20T05:42:47.157Z,99539.78
2018-12-20T05:45:50.881Z,99546.27
2018-12-20T05:48:54.390Z,99547.19
2018-12-20T05:51:57.792Z,99552.95
2018-12-20T05:55:01.443Z,99556.61
2018-12-20T05:58:05.186Z,99563.70
2018-12-20T06:01:08.424Z,99574.11
2018-12-20T06:04:11.944Z,99569.50
2018-12-20T06:07:15.401Z,99570.88
2018-12-20T06:10:18.710Z,99573.91
2018-12-20T06:13:22.040Z,99568.63
2018-12-20T06:16:25.247Z,99571.83
2018-12-20T06:19:28.664Z,99572.61
2018-12-20T06:22:32.093Z,99570.34
2018-12-20T06:25:35.381Z,99574.58
2018-12-20T06:28:38.644Z,99569.09
2018-12-20T06:31:41.852Z,99572.17
2018-12-20T06:34:45.082Z,99565.66
2018-12-20T06:37:48.287Z,99567.08
2018-12-20T06:40:51.505Z,99572.38
2018-12-20T06:43:54.772Z,99572.23
2018-12-20T06:46:58.005Z,99573.13
2018-12-20T06:50:01.219Z,99571.37
2018-12-20T06:53:04.460Z,99580.58
2018-12-20T06:56:07.697Z,99578.82
2018-12-20T06:59:10.922Z,99572.23
2018-12-20T07:02:14.263Z,99570.09
2018-12-20T07:05:17.472Z,99580.16
2018-12-20T07:08:20.671Z,99579.71
2018-12-20T07:11:23.888Z,99579.73
2018-12-20T07:14:27.364Z,99579.27
2018-12-20T07:17:30.692Z,99589.24
2018-12-20T07:20:33.949Z,99586.11
2018-12-20T07:23:37.287Z,99583.57
2018-12-20T07:26:40.506Z,99580.17
2018-12-20T07:29:43.839Z,99586.65
2018-12-20T07:32:47.156Z,99591.83
2018-12-20T07:35:50.372Z,99586.63
2018-12-20T07:38:53.588Z,99587.19
2018-12-20T07:41:56.818Z,99592.04
2018-12-20T07:45:00.041Z,99587.16
2018-12-20T07:48:03.380Z,99592.88
2018-12-20T07:51:06.609Z,99595.08
2018-12-20T07:54:09.833Z,99588.56
2018-12-20T07:57:13.106Z,99593.85
2018-12-20T08:00:16.460Z,99598.60
2018-12-20T08:03:19.877Z,99605.25
2018-12-20T08:06:23.093Z,99597.70
2018-12-20T08:09:26.321Z,99603.51
2018-12-20T08:12:29.517Z,99610.88
2018-12-20T08:15:32.860Z,99604.66
2018-12-20T08:18:36.101Z,99613.42
2018-12-20T08:21:39.335Z,99615.62
2018-12-20T08:24:42.561Z,99620.14
2018-12-20T08:27:45.819Z,99624.25
2018-12-20T08:30:49.148Z,99630.78
2018-12-20T08:33:52.357Z,99630.96
2018-12-20T08:36:55.712Z,99633.61
2018-12-20T08:39:58.937Z,99631.23
2018-12-20T08:43:02.214Z,99637.88
2018-12-20T08:46:05.467Z,99635.25
2018-12-20T08:49:08.697Z,99641.75
2018-12-20T08:52:11.924Z,99642.70
2018-12-20T08:55:15.136Z,99646.98
2018-12-20T08:58:18.334Z,99651.95
2018-12-20T09:01:21.557Z,99652.45
2018-12-20T09:04:24.772Z,99647.09
2018-12-20T09:07:27.965Z,99648.76
2018-12-20T09:10:31.183Z,99647.84
2018-12-20T09:13:34.393Z,99649.75
2018-12-20T09:16:37.862Z,99648.67
2018-12-20T09:19:41.173Z,99653.84
2018-12-20T09:22:44.400Z,99654.79
2018-12-20T09:25:47.636Z,99653.12
2018-12-20T09:28:50.845Z,99658.24
2018-12-20T09:31:54.105Z,99654.38
2018-12-20T09:34:57.337Z,99664.98
2018-12-20T09:38:01.090Z,99665.33
2018-12-20T09:41:04.697Z,99664.38
2018-12-20T09:44:07.951Z,99662.39
2018-12-20T09:48:14.565Z,99662.64
2018-12-20T09:51:17.764Z,99654.15
2018-12-20T09:54:20.940Z,99660.84
2018-12-20T09:57:24.171Z,99660.16
2018-12-20T10:00:27.379Z,99656.00
2018-12-20T10:03:30.590Z,99658.14
2018-12-20T10:06:33.813Z,99647.16
2018-12-20T10:09:36.982Z,99657.06
2018-12-20T10:12:40.178Z,99651.78
2018-12-20T10:15:43.364Z,99648.03
2018-12-20T10:18:46.605Z,99651.52
2018-12-20T10:21:49.777Z,99651.63
2018-12-20T10:24:53.104Z,99641.89
2018-12-20T10:27:56.381Z,99645.38
2018-12-20T10:30:59.769Z,99636.14
2018-12-20T10:34:03.152Z,99636.73
2018-12-20T10:37:06.459Z,99639.34
2018-12-20T10:40:09.793Z,99647.67
2018-12-20T10:43:13.113Z,99642.74
2018-12-20T10:46:16.305Z,99637.47
2018-12-20T10:49:20.761Z,99644.04
2018-12-20T10:52:23.977Z,99645.02
2018-12-20T10:55:27.176Z,99636.51
2018-12-20T10:58:31.779Z,99643.09
2018-12-20T11:01:40.656Z,99631.58
2018-12-20T11:04:49.457Z,99631.89
2018-12-20T11:07:55.984Z,99623.75
2018-12-20T11:11:05.313Z,99616.53
2018-12-20T11:14:08.647Z,99611.17
2018-12-20T11:17:11.826Z,99621.98
2018-12-20T11:20:15.064Z,99620.02
2018-12-20T11:23:18.248Z,99610.59
2018-12-20T11:26:21.472Z,99617.83
2018-12-20T11:29:25.614Z,99609.48
2018-12-20T11:32:28.882Z,99609.20
2018-12-20T11:35:32.080Z,99605.23
2018-12-20T11:38:35.281Z,99609.28
2018-12-20T11:41:38.464Z,99613.33
2018-12-20T11:44:41.649Z,99608.83
2018-12-20T11:47:45.996Z,99610.36
2018-12-20T11:50:49.689Z,99608.55
2018-12-20T11:53:52.876Z,99605.42
2018-12-20T11:56:56.085Z,99611.28
2018-12-20T11:59:59.264Z,99607.52
2018-12-20T12:03:02.493Z,99605.89
2018-12-20T12:06:05.713Z,99606.42
2018-12-20T12:09:08.922Z,99603.57
2018-12-20T12:12:12.129Z,99606.78
2018-12-20T12:15:15.316Z,99610.75
2018-12-20T12:18:18.518Z,99610.80
2018-12-20T12:21:22.864Z,99615.58
2018-12-20T12:24:26.193Z,99613.13
2018-12-20T12:27:29.414Z,99613.63
2018-12-20T12:30:32.601Z,99610.20
2018-12-20T12:33:35.787Z,99606.20
2018-12-20T12:36:39.158Z,99608.97
2018-12-20T12:39:42.368Z,99619.84
2018-12-20T12:42:45.546Z,99614.23
2018-12-20T12:45:48.868Z,99607.20
2018-12-20T12:48:52.208Z,99606.25
2018-12-20T12:51:55.556Z,99609.30
2018-12-20T12:54:58.752Z,99610.50
2018-12-20T12:58:04.903Z,99613.02
2018-12-20T13:01:07.448Z,99600.48
2018-12-20T13:04:10.667Z,99607.66
2018-12-20T13:07:14.122Z,99600.30
2018-12-20T13:10:17.404Z,99606.40
2018-12-20T13:13:20.601Z,99603.11
2018-12-20T13:16:23.948Z,99603.14
2018-12-20T13:19:27.120Z,99606.56
2018-12-20T13:22:30.340Z,99608.09
2018-12-20T13:25:33.581Z,99603.70
2018-12-20T13:28:36.760Z,99600.42
2018-12-20T13:31:39.973Z,99595.09
2018-12-20T13:34:43.278Z,99601.50
2018-12-20T13:37:46.620Z,99603.89
2018-12-20T13:40:50.863Z,99595.11
2018-12-20T13:43:54.125Z,99610.40
2018-12-20T13:46:57.360Z,99607.84
2018-12-20T13:50:00.608Z,99604.36
2018-12-20T13:53:05.612Z,99605.91
2018-12-20T13:56:08.789Z,99596.95
2018-12-20T13:59:11.976Z,99587.75
2018-12-20T14:02:15.205Z,99590.43
2018-12-20T14:05:18.409Z,99587.67
2018-12-20T14:08:21.630Z,99594.38
2018-12-20T14:11:24.804Z,99593.98
2018-12-20T14:14:28.028Z,99590.43
2018-12-20T14:17:31.229Z,99592.59
2018-12-20T14:20:34.407Z,99600.20
2018-12-20T14:23:37.616Z,99605.34
2018-12-20T14:26:41.073Z,99601.81
2018-12-20T14:29:44.280Z,99604.45
2018-12-20T14:32:47.501Z,99600.52
2018-12-20T14:35:50.717Z,99598.01
2018-12-20T14:38:53.901Z,99612.37
2018-12-20T14:41:57.211Z,99614.20
2018-12-20T14:45:00.429Z,99613.80
2018-12-20T14:48:03.992Z,99612.44
2018-12-20T14:51:07.324Z,99606.23
2018-12-20T14:54:10.656Z,99604.76
2018-12-20T14:57:13.878Z,99603.88
2018-12-20T15:00:17.204Z,99599.07
2018-12-20T15:03:20.543Z,99606.03
2018-12-20T15:06:23.745Z,99611.72
2018-12-20T15:09:26.925Z,99612.69
2018-12-20T15:12:30.141Z,99611.35
2018-12-20T15:15:33.344Z,99611.51
2018-12-20T15:18:36.788Z,99622.00
2018-12-20T15:21:39.980Z,99628.91
2018-12-20T15:24:43.225Z,99631.98
2018-12-20T15:27:46.416Z,99631.11
2018-12-20T15:30:49.621Z,99629.89
2018-12-20T15:33:53.045Z,99633.77
2018-12-20T15:36:56.229Z,99622.02
2018-12-20T15:39:59.464Z,99633.88
2018-12-20T15:43:02.676Z,99638.62
2018-12-20T15:46:05.893Z,99639.12
2018-12-20T15:49:09.254Z,99638.80
2018-12-20T15:52:12.580Z,99637.84
2018-12-20T15:55:15.880Z,99651.07
2018-12-20T15:58:20.143Z,99655.22
2018-12-20T16:01:24.617Z,99652.52
2018-12-20T16:04:29.638Z,99651.81
2018-12-20T16:07:33.352Z,99649.56
2018-12-20T16:10:37.056Z,99640.23
2018-12-20T16:13:40.269Z,99656.78
2018-12-20T16:16:43.484Z,99648.83
2018-12-20T16:19:46.808Z,99653.75
2018-12-20T16:22:50.157Z,99650.48
2018-12-20T16:25:53.436Z,99660.70
2018-12-20T16:28:59.533Z,99663.59
2018-12-20T16:32:02.746Z,99667.02
2018-12-20T16:35:07.601Z,99672.19
2018-12-20T16:38:10.800Z,99678.57
2018-12-20T16:41:14.014Z,99671.13
2018-12-20T16:44:17.469Z,99673.77
2018-12-20T16:47:20.692Z,99675.45
2018-12-20T16:50:23.905Z,99673.31
2018-12-20T16:53:27.099Z,99674.03
2018-12-20T16:56:30.473Z,99676.68
2018-12-20T16:59:33.717Z,99675.02
2018-12-20T17:02:37.119Z,99677.64
2018-12-20T17:05:40.453Z,99670.73
2018-12-20T17:08:48.145Z,99672.92
2018-12-20T17:11:48.896Z,99670.70
2018-12-20T17:14:52.093Z,99674.23
2018-12-20T17:17:56.424Z,99671.13
2018-12-20T17:21:01.250Z,99676.83
2018-12-20T17:24:05.626Z,99682.00
2018-12-20T17:27:08.864Z,99685.89
2018-12-20T17:30:12.178Z,99683.33
2018-12-20T17:33:15.492Z,99680.17
2018-12-20T17:36:19.899Z,99679.64
2018-12-20T17:39:23.532Z,99676.67
2018-12-20T17:42:26.737Z,99681.84
2018-12-20T17:45:30.028Z,99682.87
2018-12-20T17:48:33.249Z,99681.73
2018-12-20T17:51:36.608Z,99676.95
2018-12-20T17:54:39.804Z,99677.83
2018-12-20T17:57:43.044Z,99674.75
2018-12-20T18:00:46.417Z,99674.81
2018-12-20T18:03:50.849Z,99676.18
2018-12-20T18:06:54.041Z,99678.71
2018-12-20T18:09:57.263Z,99675.20
2018-12-20T18:13:00.589Z,99679.05
2018-12-20T18:16:03.816Z,99681.69
2018-12-20T18:19:07.128Z,99673.09
2018-12-20T18:22:10.459Z,99675.64
2018-12-20T18:25:13.824Z,99664.63
2018-12-20T18:28:17.036Z,99672.63
2018-12-20T18:31:20.271Z,99674.83
2018-12-20T18:34:23.593Z,99668.14
2018-12-20T18:37:26.788Z,99667.72
2018-12-20T18:40:30.127Z,99672.81
2018-12-20T18:43:33.333Z,99671.20
2018-12-20T18:46:37.857Z,99674.86
2018-12-20T18:49:47.490Z,99676.51
2018-12-20T18:52:46.336Z,99670.11
2018-12-20T18:55:49.556Z,99666.22
2018-12-20T18:58:52.757Z,99675.81
2018-12-20T19:01:56.076Z,99678.44
2018-12-20T19:04:59.277Z,99671.84
2018-12-20T19:08:02.508Z,99678.34
2018-12-20T19:11:05.836Z,99671.33
2018-12-20T19:14:09.024Z,99675.27
2018-12-20T19:17:12.355Z,99683.17
2018-12-20T19:20:16.437Z,99685.38
2018-12-20T19:23:19.932Z,99692.41
2018-12-20T19:26:24.344Z,99692.39
2018-12-20T19:29:27.556Z,99677.89
2018-12-20T19:32:30.760Z,99672.88
2018-12-20T19:35:33.945Z,99678.63
2018-12-20T19:38:37.272Z,99682.71
2018-12-20T19:41:41.539Z,99669.03
2018-12-20T19:44:44.795Z,99672.09
2018-12-20T19:47:48.007Z,99672.55
2018-12-20T19:50:51.198Z,99675.26
2018-12-20T19:53:54.413Z,99674.47
2018-12-20T19:56:57.638Z,99683.53
2018-12-20T20:00:01.013Z,99689.16
2018-12-20T20:03:04.379Z,99680.89
2018-12-20T20:06:07.917Z,99682.71
2018-12-20T20:09:12.408Z,99690.08
2018-12-20T20:12:16.465Z,99684.41
2018-12-20T20:15:19.665Z,99680.37
2018-12-20T20:18:23.002Z,99671.77
2018-12-20T20:21:26.216Z,99665.59
2018-12-20T20:24:30.433Z,99672.09
2018-12-20T20:27:33.665Z,99670.45
2018-12-20T20:30:37.281Z,99673.02
2018-12-20T20:33:40.514Z,99664.28
2018-12-20T20:36:43.712Z,99668.14
2018-12-20T20:39:46.966Z,99662.14
2018-12-20T20:42:50.197Z,99662.91
2018-12-20T20:45:53.400Z,99666.04
2018-12-20T20:48:56.615Z,99665.02
2018-12-20T20:51:59.933Z,99661.52
2018-12-20T20:55:05.656Z,99661.98
2018-12-20T20:58:09.059Z,99656.78
2018-12-20T21:01:12.266Z,99659.85
2018-12-20T21:04:15.592Z,99660.25
2018-12-20T21:07:18.791Z,99660.95
2018-12-20T21:10:22.045Z,99647.03
2018-12-20T21:13:26.769Z,99655.80
2018-12-20T21:16:29.958Z,99663.16
2018-12-20T21:19:33.151Z,99662.44
2018-12-20T21:22:36.340Z,99659.20
2018-12-20T21:25:39.569Z,99659.19
2018-12-20T21:28:42.820Z,99663.06
2018-12-20T21:31:46.047Z,99664.47
2018-12-20T21:34:49.226Z,99664.97
2018-12-20T21:37:52.414Z,99658.31
2018-12-20T21:40:55.803Z,99658.33
2018-12-20T21:43:58.981Z,99681.23
2018-12-20T21:47:02.194Z,99672.11
2018-12-20T21:50:08.681Z,99686.95
2018-12-20T21:53:12.584Z,99680.97
2018-12-20T21:56:15.801Z,99677.92
2018-12-20T21:59:19.005Z,99679.59
2018-12-20T22:02:22.246Z,99688.87
2018-12-20T22:05:25.456Z,99679.41
2018-12-20T22:08:28.677Z,99682.30
2018-12-20T22:11:31.877Z,99683.25
2018-12-20T22:14:36.597Z,99687.56
2018-12-20T22:17:40.673Z,99693.27
2018-12-20T22:20:47.522Z,99695.97
2018-12-20T22:23:49.118Z,99689.78
2018-12-20T22:26:52.309Z,99690.63
2018-12-20T22:29:55.509Z,99687.89
2018-12-20T22:32:59.939Z,99684.77
2018-12-20T22:36:03.165Z,99639.08
2018-12-20T22:39:07.133Z,99678.28
2018-12-20T22:42:10.319Z,99684.38
2018-12-20T22:45:13.612Z,99677.31
2018-12-20T22:48:16.830Z,99672.67
2018-12-20T22:51:20.037Z,99663.25
2018-12-20T22:54:23.257Z,99665.12
2018-12-20T22:57:26.482Z,99652.30
2018-12-20T23:00:29.826Z,99652.47
2018-12-20T23:03:34.156Z,99644.48
2018-12-20T23:06:38.346Z,99641.58
2018-12-20T23:09:41.582Z,99637.63
2018-12-20T23:12:44.816Z,99640.17
2018-12-20T23:15:48.029Z,99629.91
2018-12-20T23:18:51.246Z,99624.59
2018-12-20T23:21:54.456Z,99617.05
2018-12-20T23:24:57.664Z,99619.77
2018-12-20T23:28:00.877Z,99614.94
2018-12-20T23:31:04.294Z,99608.72
2018-12-20T23:34:08.429Z,99606.73
2018-12-20T23:37:11.650Z,99601.48
2018-12-20T23:40:14.907Z,99596.66
2018-12-20T23:43:18.141Z,99595.30
2018-12-20T23:46:21.336Z,99588.38
2018-12-20T23:49:24.536Z,99589.62
2018-12-20T23:52:27.724Z,99580.81
2018-12-20T23:55:30.924Z,99587.75
2018-12-20T23:58:34.092Z,99588.75
